Aeroporto :
LOGIN :

Iscrizione | Disclaimer

   EN    FR    IT 

 










Sommario :    VFR   VFR Marginale   IFR   IFR Intensivo   IFR Molto Intensivo
Visibilità : 
Base nubi : 
>= 8 km
>= 3000ft
5 / 8 km
1000 / 3000 ft
1500m / 5 km
500 / 1000 ft
800 / 1500m
200 / 500 ft
< 800m
< 200 ft
Simboli :   Temporali  Nebbia  Neve Forte  Precipitazioni Forti  Vento > 20 kt
SIGMETs :   Varie  Temporali  Ghiacco  Turbolenza  Onda orograficha  Ceneri Vulcaniche







- Altitudine del aeroporto : 194 ft
- Codice IATA : LME
- Carte del aeroporto


LFRM - Le Mans

ULTIMO METAR :
  • 191230Z AUTO 22003KT 160V330 CAVOK 24/09 Q1024 NOSIG

METARs OBSOLETI :
  • 191200Z AUTO VRB03KT CAVOK 24/08 Q1024 NOSIG
  • 191130Z AUTO VRB02KT CAVOK 23/09 Q1024 NOSIG
  • 191100Z AUTO 31003KT 210V010 CAVOK 22/08 Q1024 NOSIG
  • 191030Z AUTO 27004KT 200V340 CAVOK 22/08 Q1024 NOSIG
  • 191000Z AUTO VRB03KT CAVOK 21/07 Q1024 NOSIG

TAF TAF LFRM
Valido dal 19 a 12 ore il 20 a 12 ore UTC


191100Z 1912/2012 VRB03KT CAVOK
Nessun NOTAM noto per questo aeroporto.



MetMap, La meteo Aeronautica in un colpo d'occhio ! - Copyright ORBIFLY Dicembre 2007 - Disclaimer

ORBIFLY MET'MAP TEAM :

Programmazione e sviluppo : Alexandra Zaïnal
Concezione e sviluppo : Baudouin d'Aumeries
Co-Programmazione e sviluppo : Marc-Olivier Méhu
Supporto tecnico e logistico : Manuel Goepfert
Aiuto per la traduzione : Arnaldo La Scala

Contatto : metmap@orbifly.com




FONTI E CREDITI :

   NOAA